PDT,Max TemperatureF,Mean TemperatureF,Min TemperatureF,Max Dew PointF,MeanDew PointF,Min DewpointF,Max Humidity, Mean Humidity, Min Humidity, Max Sea Level PressureIn, Mean Sea Level PressureIn, Min Sea Level PressureIn, Max VisibilityMiles, Mean VisibilityMiles, Min VisibilityMiles, Max Wind SpeedMPH, Mean Wind SpeedMPH, Max Gust SpeedMPH,PrecipitationIn, CloudCover, Events, WindDirDegrees
2013-9-1,88,70,51,55,51,48,89,58,27,29.95,29.90,29.85,10,10,10,20,4,24,0.00,0,,348
2013-9-2,86,70,53,56,53,50,93,65,37,29.94,29.91,29.85,10,10,10,15,4,21,0.00,2,,334
2013-9-3,84,68,52,54,49,42,89,57,24,29.98,29.95,29.92,10,10,10,15,3,20,0.00,0,,345
2013-9-4,84,69,53,54,51,46,89,59,28,30.03,29.98,29.94,10,10,10,15,4,17,0.00,0,,347
2013-9-5,81,68,55,54,50,45,86,57,28,30.02,29.99,29.96,10,10,10,17,5,23,0.00,0,,330
2013-9-6,96,73,50,50,47,38,89,53,16,30.02,29.93,29.83,10,10,10,7,1,10,0.00,0,,62
2013-9-7,99,76,52,50,45,37,83,48,13,29.90,29.85,29.78,10,10,10,15,1,18,0.00,0,,300
2013-9-8,103,79,54,49,46,37,77,44,11,29.87,29.81,29.73,10,10,10,15,1,21,0.00,0,,298
2013-9-9,104,80,56,50,45,38,72,42,11,29.81,29.74,29.67,10,10,10,15,2,21,0.00,0,,324
2013-9-10,90,74,57,58,53,48,77,53,28,29.87,29.76,29.70,10,10,10,20,5,29,0.00,0,,153
2013-9-11,81,71,60,58,56,55,84,66,48,29.99,29.93,29.88,10,10,10,16,8,21,0.00,3,,156
2013-9-12,93,75,56,59,54,49,93,60,26,29.97,29.91,29.84,10,10,10,15,2,20,0.00,2,,24
2013-9-13,96,76,55,55,51,45,86,52,17,29.88,29.81,29.73,10,10,10,16,2,23,0.00,0,,359
2013-9-14,93,72,51,54,51,49,89,57,25,29.79,29.74,29.69,10,10,10,13,2,18,0.00,0,,4
2013-9-15,84,69,54,55,51,48,80,56,32,29.86,29.82,29.78,10,10,10,15,4,20,0.00,3,,326
2013-9-16,86,69,52,54,51,49,93,61,29,29.89,29.84,29.78,10,10,10,15,3,18,0.00,0,,341
2013-9-17,75,67,58,52,49,46,75,58,41,29.94,29.86,29.81,10,10,10,22,11,32,0.00,0,,332
2013-9-18,84,65,46,46,44,35,86,52,18,29.96,29.90,29.83,10,10,10,15,3,18,0.00,0,,350
2013-9-19,93,70,46,45,43,36,86,50,14,29.88,29.82,29.73,10,10,10,14,2,18,0.00,0,,67
2013-9-20,78,62,46,61,52,42,86,66,46,29.85,29.79,29.77,10,9,4,13,3,17,0.00,5,Rain,169
2013-9-21,70,63,56,61,54,49,93,71,49,29.91,29.80,29.76,10,9,2,17,3,25,0.23,5,Rain,212
2013-9-22,72,60,48,50,48,45,93,67,40,30.03,29.97,29.91,10,10,10,15,3,21,0.00,5,,319
2013-9-23,82,66,50,55,50,47,89,63,36,30.04,30.00,29.93,10,10,10,13,2,17,0.00,0,,345
2013-9-24,76,68,59,50,47,45,69,54,38,29.98,29.95,29.91,10,10,10,20,8,28,0.00,0,,331
2013-9-25,70,59,48,45,42,38,86,60,34,29.96,29.91,29.86,10,10,10,20,8,29,0.00,1,,331
2013-9-26,74,56,38,43,39,34,86,55,23,30.05,29.95,29.89,10,10,10,16,4,23,0.00,0,,312
2013-9-27,80,60,40,42,37,28,89,53,16,30.14,30.07,30.01,10,10,10,13,1,17,0.00,0,,315
2013-9-28,83,64,44,54,45,38,83,53,23,30.09,30.05,29.98,10,10,10,13,2,16,0.00,1,,158
2013-9-29,71,65,59,61,58,53,93,77,61,30.08,30.04,30.01,10,8,2,12,3,16,0.09,8,Rain,166
2013-9-30,73,67,61,62,57,46,100,75,49,30.06,30.01,29.98,10,7,2,16,5,18,0.11,7,Rain,163